Temple, OK (73568)

11:15 PM CDT on September 21, 2014 (GMT -0500)
at the ranch | Change Station
CLOSE
Current Station
Personal Weather Station
Location: Cookietown, OK
Elevation: 968 ft
Nearby Weather Stations

Elev 968 ft 34.24 °N, 98.42 °W | Updated 1 minute ago

Partly Cloudy
Partly Cloudy
71.4 °F
Feels Like 72 °F
N
9.8
Wind Variable Wind from North
Gusts 13.0 mph

Today
High -- | Low -- °F
--% Chance of Precip.
Yesterday
High -- | Low -- °F
Precip. -- in
7:20 AM 7:31 PM
Waning Crescent, 4% visible
Pressure 30.20 in
Visibility 10.0 miles
Clouds Mostly Cloudy 6500 ft
Mostly Cloudy 8500 ft
Heat Index 72 °F
Dew Point 65 °F
Humidity 79%
Rainfall 0.02 in
Snow Depth Not available.
UV 1.0 out of 12
Pollen 10.20 out of 12
Air Quality Not available.
Flu Activity Not available.
METAR KDUC 220355Z AUTO 00000KT 10SM BKN065 BKN085 21/18 A3020 RMK AO2

More Conditions Fewer Conditions

Pressure 30.20 in
Visibility 10.0 miles
Clouds Mostly Cloudy 6500 ft
Mostly Cloudy 8500 ft
Heat Index 72 °F
Dew Point 65 °F
Humidity 79%
Rainfall 0.02 in
Snow Depth Not available.
UV 1.0 out of 12
Pollen 10.20 out of 12
Air Quality Not available.
Flu Activity Not available.
METAR KDUC 220355Z AUTO 00000KT 10SM BKN065 BKN085 21/18 A3020 RMK AO2

More Conditions Fewer Conditions

10-Day Weather Forecast

Almanac

Astronomy

Sep. 21, 2014 Rise Set
Actual Time 7:20 AM CDT 7:31 PM CDT
Civil Twilight 6:55 AM CDT 7:56 PM CDT
Nautical Twilight 6:25 AM CDT 8:25 PM CDT
Astronomical Twilight 5:56 AM CDT 8:54 PM CDT
Moon 5:00 AM CDT (9/21) 6:04 PM CDT (9/21)
Length of Visible Light 13h 00m
Length of Day
12h 10m
Tomorrow will be 2m 8s shorter.
Waning Crescent, 4% of the Moon is Illuminated
Sep 22
Waning Crescent
Sep 24
New
Oct 1
First Quarter
Oct 8
Full
Oct 15
Last Quarter

Today's Extremes

State Highs State Lows

Community

WunderPhotos

Upload Photos

1,755,383 photos uploaded!

Nearby

Snow Depth

Station Depth Elevation
No new snow has been reported.

Earthquake Activity

City Distance Mag. Time & Date
Luther, Oklahoma 115 miles 2.7 4:47 PM CDT
2014-09-19
Guthrie, Oklahoma 116 miles 3.6 12:23 PM CDT
2014-09-19
Jones, Oklahoma 104 miles 2.8 1:13 AM CDT
2014-09-19
Perry, Oklahoma 143 miles 3.3 12:08 AM CDT
2014-09-19
Minimum magnitude displayed is 2.5.

Coastal Water Temperatures

Place Temperature
No Stations Reporting

Nearby Weather Stations